createdAt,value
2018-07-28T00:00:23.195Z,60.50
2018-07-28T00:02:50.539Z,59.70
2018-07-28T00:05:17.883Z,59.90
2018-07-28T00:07:45.194Z,60.00
2018-07-28T00:10:12.522Z,60.70
2018-07-28T00:12:39.866Z,60.70
2018-07-28T00:15:09.196Z,60.50
2018-07-28T00:17:36.756Z,61.20
2018-07-28T00:20:05.251Z,61.50
2018-07-28T00:22:32.612Z,61.20
2018-07-28T00:24:59.919Z,60.50
2018-07-28T00:27:27.260Z,60.70
2018-07-28T00:29:54.611Z,60.70
2018-07-28T00:32:21.932Z,61.50
2018-07-28T00:34:49.267Z,61.10
2018-07-28T00:37:16.659Z,61.20
2018-07-28T00:39:44.015Z,61.10
2018-07-28T00:42:11.363Z,61.50
2018-07-28T00:44:38.696Z,62.30
2018-07-28T00:47:06.021Z,62.10
2018-07-28T00:49:33.330Z,61.90
2018-07-28T00:54:27.827Z,61.50
2018-07-28T00:56:55.204Z,61.90
2018-07-28T00:59:22.463Z,62.30
2018-07-28T01:01:49.796Z,62.40
2018-07-28T01:04:17.099Z,62.60
2018-07-28T01:06:44.415Z,62.00
2018-07-28T01:09:11.779Z,61.80
2018-07-28T01:11:39.145Z,62.50
2018-07-28T01:16:33.667Z,62.60
2018-07-28T01:19:00.987Z,62.30
2018-07-28T01:21:28.423Z,62.60
2018-07-28T01:23:55.749Z,62.50
2018-07-28T01:26:23.075Z,63.00
2018-07-28T01:28:50.391Z,63.20
2018-07-28T01:31:17.696Z,63.50
2018-07-28T01:33:45.031Z,63.80
2018-07-28T01:36:12.383Z,64.70
2018-07-28T01:38:39.738Z,64.40
2018-07-28T01:41:07.090Z,64.10
2018-07-28T01:43:34.423Z,63.90
2018-07-28T01:46:01.748Z,64.40
2018-07-28T01:48:29.087Z,64.10
2018-07-28T01:50:56.423Z,63.60
2018-07-28T01:53:23.736Z,64.60
2018-07-28T01:55:51.063Z,64.40
2018-07-28T01:58:18.397Z,63.80
2018-07-28T02:00:45.715Z,64.40
2018-07-28T02:03:13.052Z,64.40
2018-07-28T02:05:40.383Z,63.70
2018-07-28T02:08:07.748Z,64.10
2018-07-28T02:10:35.060Z,64.80
2018-07-28T02:13:02.383Z,64.40
2018-07-28T02:15:29.694Z,63.50
2018-07-28T02:17:57.045Z,63.80
2018-07-28T02:20:24.375Z,64.20
2018-07-28T02:22:51.711Z,64.90
2018-07-28T02:25:19.022Z,64.60
2018-07-28T02:27:46.615Z,64.40
2018-07-28T02:30:14.094Z,65.20
2018-07-28T02:32:41.398Z,65.70
2018-07-28T02:35:08.777Z,65.30
2018-07-28T02:37:36.114Z,65.60
2018-07-28T02:40:03.945Z,65.60
2018-07-28T02:42:31.277Z,65.80
2018-07-28T02:44:58.611Z,65.80
2018-07-28T02:47:25.943Z,65.60
2018-07-28T02:49:53.346Z,65.60
2018-07-28T02:52:20.703Z,65.80
2018-07-28T02:54:48.036Z,65.60
2018-07-28T02:57:15.370Z,65.90
2018-07-28T02:59:42.689Z,65.90
2018-07-28T03:02:10.015Z,66.10
2018-07-28T03:04:37.336Z,66.40
2018-07-28T03:07:05.340Z,67.20
2018-07-28T03:09:32.739Z,67.60
2018-07-28T03:12:00.126Z,68.30
2018-07-28T03:14:27.496Z,67.50
2018-07-28T03:16:54.784Z,66.50
2018-07-28T03:19:22.088Z,67.40
2018-07-28T03:21:49.417Z,67.90
2018-07-28T03:24:16.712Z,66.80
2018-07-28T03:26:44.083Z,67.10
2018-07-28T03:29:11.419Z,66.90
2018-07-28T03:31:38.760Z,67.50
2018-07-28T03:34:06.481Z,67.60
2018-07-28T03:36:33.799Z,68.00
2018-07-28T03:39:01.171Z,67.30
2018-07-28T03:41:28.491Z,67.70
2018-07-28T03:43:55.860Z,67.70
2018-07-28T03:46:23.160Z,67.40
2018-07-28T03:48:50.487Z,67.20
2018-07-28T03:51:17.808Z,68.40
2018-07-28T03:53:45.138Z,68.60
2018-07-28T03:56:12.472Z,69.00
2018-07-28T03:58:39.815Z,68.90
2018-07-28T04:01:07.183Z,69.20
2018-07-28T04:03:34.512Z,69.10
2018-07-28T04:06:01.844Z,69.10
2018-07-28T04:08:29.166Z,68.30
2018-07-28T04:10:56.503Z,68.30
2018-07-28T04:13:23.854Z,69.50
2018-07-28T04:15:51.174Z,68.30
2018-07-28T04:18:18.483Z,68.40
2018-07-28T04:20:45.822Z,68.30
2018-07-28T04:23:13.138Z,69.30
2018-07-28T04:25:40.490Z,69.80
2018-07-28T04:28:07.855Z,69.50
2018-07-28T04:30:35.215Z,68.70
2018-07-28T04:33:02.523Z,68.60
2018-07-28T04:35:29.862Z,68.10
2018-07-28T04:37:57.258Z,68.20
2018-07-28T04:40:24.582Z,68.30
2018-07-28T04:42:51.882Z,68.30
2018-07-28T04:45:19.231Z,68.00
2018-07-28T04:47:46.544Z,68.00
2018-07-28T04:50:13.920Z,68.40
2018-07-28T04:52:41.271Z,68.30
2018-07-28T04:55:08.644Z,68.60
2018-07-28T04:57:36.058Z,68.60
2018-07-28T05:00:04.092Z,68.80
2018-07-28T05:02:31.407Z,68.60
2018-07-28T05:04:58.739Z,68.60
2018-07-28T05:07:26.116Z,68.30
2018-07-28T05:09:53.624Z,68.00
2018-07-28T05:12:20.978Z,67.50
2018-07-28T05:14:48.291Z,68.60
2018-07-28T05:17:15.589Z,67.90
2018-07-28T05:19:42.918Z,67.30
2018-07-28T05:22:10.369Z,66.40
2018-07-28T05:24:37.768Z,66.90
2018-07-28T05:27:05.208Z,67.40
2018-07-28T05:29:32.593Z,67.60
2018-07-28T05:31:59.899Z,67.60
2018-07-28T05:34:27.248Z,67.80
2018-07-28T05:36:54.564Z,67.10
2018-07-28T05:39:21.867Z,66.30
2018-07-28T05:41:49.215Z,66.40
2018-07-28T05:44:17.220Z,66.50
2018-07-28T05:46:44.581Z,66.10
2018-07-28T05:49:11.919Z,65.10
2018-07-28T05:51:39.288Z,64.80
2018-07-28T05:54:06.676Z,64.50
2018-07-28T05:56:33.987Z,64.30
2018-07-28T05:59:01.339Z,64.10
2018-07-28T06:01:28.821Z,63.60
2018-07-28T06:03:56.151Z,63.10
2018-07-28T06:06:23.508Z,62.90
2018-07-28T06:08:50.824Z,62.30
2018-07-28T06:11:18.163Z,61.00
2018-07-28T06:13:45.479Z,61.40
2018-07-28T06:16:12.816Z,61.00
2018-07-28T06:18:40.135Z,60.10
2018-07-28T06:21:07.487Z,60.50
2018-07-28T06:23:34.859Z,60.50
2018-07-28T06:26:02.236Z,60.50
2018-07-28T06:28:29.499Z,60.40
2018-07-28T06:30:56.853Z,60.30
2018-07-28T06:33:24.171Z,60.20
2018-07-28T06:35:51.509Z,60.20
2018-07-28T06:38:18.817Z,59.60
2018-07-28T06:40:46.155Z,59.40
2018-07-28T06:43:13.468Z,59.20
2018-07-28T06:45:40.883Z,59.60
2018-07-28T06:48:08.233Z,59.20
2018-07-28T06:50:35.579Z,58.70
2018-07-28T06:53:02.908Z,58.70
2018-07-28T06:57:57.443Z,59.70
2018-07-28T07:00:24.800Z,60.10
2018-07-28T07:02:52.094Z,60.00
2018-07-28T07:05:19.428Z,59.70
2018-07-28T07:07:47.990Z,59.80
2018-07-28T07:10:15.348Z,59.60
2018-07-28T07:12:42.684Z,60.00
2018-07-28T07:15:10.060Z,60.40
2018-07-28T07:17:37.455Z,61.60
2018-07-28T07:20:04.770Z,63.30
2018-07-28T07:22:32.079Z,64.70
2018-07-28T07:24:59.396Z,66.20
2018-07-28T07:27:26.788Z,67.00
2018-07-28T07:29:54.143Z,67.30
2018-07-28T07:32:21.434Z,66.90
2018-07-28T07:34:48.848Z,67.20
2018-07-28T07:37:16.187Z,67.30
2018-07-28T07:39:43.965Z,66.80
2018-07-28T07:42:11.852Z,66.40
2018-07-28T07:44:39.247Z,65.80
2018-07-28T07:47:06.724Z,65.20
2018-07-28T07:49:34.013Z,65.80
2018-07-28T07:52:01.332Z,66.60
2018-07-28T07:54:28.665Z,67.70
2018-07-28T07:56:55.980Z,69.70
2018-07-28T07:59:23.349Z,70.70
2018-07-28T08:01:50.647Z,70.80
2018-07-28T08:04:17.965Z,72.50
2018-07-28T08:06:45.295Z,72.60
2018-07-28T08:09:12.634Z,72.80
2018-07-28T08:11:39.979Z,73.90
2018-07-28T08:14:07.441Z,73.50
2018-07-28T08:19:01.999Z,74.30
2018-07-28T08:21:29.321Z,74.30
2018-07-28T08:23:56.722Z,72.90
2018-07-28T08:26:24.045Z,74.10
2018-07-28T08:28:51.405Z,73.70
2018-07-28T08:31:18.752Z,72.90
2018-07-28T08:33:46.570Z,73.00
2018-07-28T08:38:41.190Z,74.10
2018-07-28T08:41:08.599Z,74.50
2018-07-28T08:43:36.005Z,75.90
2018-07-28T08:46:03.352Z,75.00
2018-07-28T08:48:30.704Z,74.20
2018-07-28T08:50:58.008Z,73.50
2018-07-28T08:53:25.327Z,73.00
2018-07-28T08:55:52.667Z,72.60
2018-07-28T08:58:20.809Z,71.60
2018-07-28T09:00:48.143Z,71.30
2018-07-28T09:03:15.452Z,69.60
2018-07-28T09:05:42.782Z,65.90
2018-07-28T09:08:10.133Z,66.10
2018-07-28T09:10:37.545Z,66.80
2018-07-28T09:13:04.800Z,69.20
2018-07-28T09:15:32.117Z,69.70
2018-07-28T09:17:59.557Z,69.90
2018-07-28T09:20:26.853Z,69.20
2018-07-28T09:22:54.157Z,71.20
2018-07-28T09:25:21.519Z,70.90
2018-07-28T09:27:48.824Z,69.30
2018-07-28T09:30:16.172Z,69.50
2018-07-28T09:32:43.465Z,67.20
2018-07-28T09:35:10.808Z,68.70
2018-07-28T09:37:38.245Z,68.50
2018-07-28T09:40:05.557Z,66.60
2018-07-28T09:42:32.916Z,67.40
2018-07-28T09:45:00.269Z,67.30
2018-07-28T09:47:27.574Z,67.40
2018-07-28T09:49:54.907Z,68.00
2018-07-28T09:52:22.264Z,68.80
2018-07-28T09:54:49.575Z,69.10
2018-07-28T09:57:16.912Z,69.40
2018-07-28T09:59:44.247Z,70.10
2018-07-28T10:02:11.576Z,68.60
2018-07-28T10:04:38.923Z,68.10
2018-07-28T10:07:06.557Z,68.30
2018-07-28T10:09:33.839Z,67.50
2018-07-28T10:12:01.195Z,64.00
2018-07-28T10:14:28.533Z,65.40
2018-07-28T10:16:55.898Z,65.70
2018-07-28T10:19:23.220Z,66.10
2018-07-28T10:21:50.635Z,66.20
2018-07-28T10:24:17.946Z,66.50
2018-07-28T10:26:45.339Z,66.00
2018-07-28T10:29:12.766Z,65.20
2018-07-28T10:31:40.064Z,64.10
2018-07-28T10:34:07.388Z,63.70
2018-07-28T10:36:34.743Z,63.60
2018-07-28T10:39:02.423Z,62.10
2018-07-28T10:41:29.748Z,62.10
2018-07-28T10:43:57.092Z,62.20
2018-07-28T10:46:24.412Z,62.00
2018-07-28T10:51:19.068Z,60.30
2018-07-28T10:53:46.456Z,58.30
2018-07-28T10:56:13.869Z,58.50
2018-07-28T10:58:41.209Z,58.50
2018-07-28T11:01:08.519Z,58.50
2018-07-28T11:03:35.840Z,58.90
2018-07-28T11:06:03.172Z,58.30
2018-07-28T11:08:30.488Z,57.70
2018-07-28T11:10:57.909Z,56.20
2018-07-28T11:13:25.221Z,57.20
2018-07-28T11:15:52.551Z,57.70
2018-07-28T11:18:20.114Z,57.10
2018-07-28T11:20:47.406Z,57.50
2018-07-28T11:24:22.171Z,57.80
2018-07-28T11:26:49.495Z,58.00
2018-07-28T11:29:16.840Z,57.70
2018-07-28T11:31:55.780Z,56.90
2018-07-28T11:34:34.484Z,56.30
2018-07-28T11:37:13.343Z,56.00
2018-07-28T11:39:52.283Z,55.70
2018-07-28T11:42:31.107Z,55.70
2018-07-28T11:45:01.344Z,54.70
2018-07-28T11:47:28.776Z,55.20
2018-07-28T11:49:56.093Z,53.90
2018-07-28T11:52:23.404Z,55.70
2018-07-28T11:54:50.795Z,54.30
2018-07-28T11:57:18.099Z,54.80
2018-07-28T11:59:45.436Z,53.90
2018-07-28T12:02:12.843Z,53.70
2018-07-28T12:04:40.331Z,54.30
2018-07-28T12:07:07.642Z,54.20
2018-07-28T12:09:34.965Z,54.20
2018-07-28T12:12:02.340Z,55.40
2018-07-28T12:14:29.754Z,55.00
2018-07-28T12:16:57.114Z,53.10
2018-07-28T12:19:24.435Z,54.40
2018-07-28T12:21:51.795Z,54.10
2018-07-28T12:24:19.177Z,54.20
2018-07-28T12:26:46.539Z,54.20
2018-07-28T12:29:13.882Z,54.20
2018-07-28T12:31:41.224Z,54.30
2018-07-28T12:34:08.519Z,54.70
2018-07-28T12:36:35.916Z,54.60
2018-07-28T12:39:05.399Z,54.50
2018-07-28T12:41:32.774Z,55.00
2018-07-28T12:44:00.121Z,54.90
2018-07-28T12:46:27.528Z,54.80
2018-07-28T12:48:54.837Z,55.30
2018-07-28T12:51:22.175Z,55.10
2018-07-28T12:53:49.569Z,55.30
2018-07-28T12:56:16.970Z,55.20
2018-07-28T12:58:44.301Z,55.50
2018-07-28T13:01:11.628Z,55.70
2018-07-28T13:03:39.039Z,55.90
2018-07-28T13:06:06.360Z,55.60
2018-07-28T13:08:33.672Z,55.30
2018-07-28T13:11:01.081Z,58.70
2018-07-28T13:13:28.425Z,60.30
2018-07-28T13:15:55.795Z,61.00
2018-07-28T13:18:23.127Z,61.00
2018-07-28T13:20:50.496Z,59.50
2018-07-28T13:23:17.820Z,62.40
2018-07-28T13:25:45.144Z,63.20
2018-07-28T13:28:12.461Z,63.60
2018-07-28T13:30:39.874Z,62.20
2018-07-28T13:33:07.192Z,63.40
2018-07-28T13:35:34.561Z,63.50
2018-07-28T13:38:02.064Z,64.60
2018-07-28T13:40:29.366Z,65.90
2018-07-28T13:42:56.732Z,67.50
2018-07-28T13:45:24.037Z,67.00
2018-07-28T13:47:51.377Z,67.80
2018-07-28T13:50:18.686Z,67.40
2018-07-28T13:52:45.992Z,67.80
2018-07-28T13:55:13.343Z,67.10
2018-07-28T13:57:40.683Z,67.70
2018-07-28T14:00:08.040Z,68.00
2018-07-28T14:02:35.329Z,68.80
2018-07-28T14:05:02.779Z,70.30
2018-07-28T14:07:30.243Z,71.10
2018-07-28T14:09:57.592Z,73.00
2018-07-28T14:12:24.939Z,70.70
2018-07-28T14:14:52.341Z,71.10
2018-07-28T14:17:19.638Z,70.40
2018-07-28T14:19:47.036Z,70.30
2018-07-28T14:22:14.379Z,69.80
2018-07-28T14:24:41.689Z,70.20
2018-07-28T14:27:09.001Z,68.80
2018-07-28T14:29:36.366Z,69.40
2018-07-28T14:32:03.672Z,69.30
2018-07-28T14:34:31.137Z,69.80
2018-07-28T14:36:58.836Z,70.00
2018-07-28T14:39:26.169Z,69.70
2018-07-28T14:41:53.479Z,69.30
2018-07-28T14:44:20.911Z,69.50
2018-07-28T14:46:48.253Z,69.70
2018-07-28T14:49:15.575Z,70.00
2018-07-28T14:51:42.959Z,70.10
2018-07-28T14:54:10.318Z,69.60
2018-07-28T14:56:37.619Z,69.40
2018-07-28T14:59:05.105Z,68.00
2018-07-28T15:01:32.546Z,67.10
2018-07-28T15:03:59.902Z,67.90
2018-07-28T15:06:27.211Z,68.50
2018-07-28T15:08:54.576Z,69.40
2018-07-28T15:11:21.879Z,69.90
2018-07-28T15:13:50.798Z,69.60
2018-07-28T15:16:18.082Z,68.80
2018-07-28T15:18:45.894Z,68.60
2018-07-28T15:21:13.287Z,67.90
2018-07-28T15:23:40.939Z,67.90
2018-07-28T15:26:08.246Z,66.70
2018-07-28T15:28:35.568Z,66.20
2018-07-28T15:31:02.890Z,65.60
2018-07-28T15:33:30.228Z,65.60
2018-07-28T15:35:57.614Z,65.90
2018-07-28T15:38:24.964Z,65.30
2018-07-28T15:40:52.296Z,64.70
2018-07-28T15:43:19.661Z,64.00
2018-07-28T15:45:46.981Z,63.40
2018-07-28T15:48:14.429Z,63.00
2018-07-28T15:50:41.783Z,62.70
2018-07-28T15:53:09.130Z,62.30
2018-07-28T15:55:36.441Z,61.50
2018-07-28T15:58:03.763Z,61.70
2018-07-28T16:00:31.098Z,61.80
2018-07-28T16:02:58.416Z,61.10
2018-07-28T19:31:39.074Z,60.90
2018-07-28T19:34:06.405Z,60.50
2018-07-28T19:39:00.944Z,59.70
2018-07-28T19:41:28.339Z,59.60
2018-07-28T19:43:55.643Z,59.60
2018-07-28T19:46:22.960Z,59.90
2018-07-28T19:48:50.316Z,59.70
2018-07-28T19:51:17.658Z,59.80
2018-07-28T19:53:44.974Z,59.90
2018-07-28T19:56:12.275Z,60.20
2018-07-28T19:58:39.611Z,60.20
2018-07-28T20:01:06.981Z,60.50
2018-07-28T20:03:34.359Z,60.50
2018-07-28T20:06:01.675Z,60.40
2018-07-28T20:08:29.044Z,60.40
2018-07-28T20:10:56.420Z,60.30
2018-07-28T20:13:23.791Z,60.40
2018-07-28T20:15:51.112Z,60.50
2018-07-28T20:18:18.600Z,60.70
2018-07-28T20:20:45.943Z,60.50
2018-07-28T20:23:13.264Z,60.30
2018-07-28T20:25:40.617Z,60.30
2018-07-28T20:28:07.945Z,61.00
2018-07-28T20:30:35.259Z,61.40
2018-07-28T20:33:02.587Z,60.60
2018-07-28T20:35:29.914Z,60.20
2018-07-28T20:37:57.305Z,60.70
2018-07-28T20:40:24.602Z,60.80
2018-07-28T20:42:51.932Z,60.30
2018-07-28T20:45:19.315Z,60.30
2018-07-28T20:47:46.627Z,60.50
2018-07-28T20:50:13.927Z,60.80
2018-07-28T20:52:41.347Z,61.30
2018-07-28T20:55:08.694Z,61.80
2018-07-28T20:57:36.021Z,62.30
2018-07-28T21:00:03.344Z,62.50
2018-07-28T21:02:30.664Z,62.70
2018-07-28T21:04:57.991Z,62.60
2018-07-28T21:07:25.312Z,62.80
2018-07-28T21:09:52.967Z,63.30
2018-07-28T21:12:20.287Z,63.50
2018-07-28T21:14:47.621Z,64.00
2018-07-28T21:17:14.955Z,64.50
2018-07-28T21:19:42.322Z,64.60
2018-07-28T21:22:09.638Z,64.80
2018-07-28T21:24:36.937Z,65.60
2018-07-28T21:27:04.379Z,65.90
2018-07-28T21:29:31.691Z,65.40
2018-07-28T21:31:59.058Z,65.20
2018-07-28T21:34:26.363Z,65.30
2018-07-28T21:36:53.679Z,65.10
2018-07-28T21:39:21.013Z,65.30
2018-07-28T21:41:49.059Z,65.50
2018-07-28T21:44:16.392Z,65.20
2018-07-28T21:46:43.732Z,65.90
2018-07-28T21:49:11.079Z,64.60
2018-07-28T21:51:38.379Z,64.90
2018-07-28T21:54:05.707Z,65.60
2018-07-28T21:56:33.027Z,65.30
2018-07-28T21:59:00.343Z,66.00
2018-07-28T22:01:27.683Z,65.80
2018-07-28T22:03:55.025Z,65.90
2018-07-28T22:06:23.107Z,66.60
2018-07-28T22:08:50.472Z,66.80
2018-07-28T22:11:17.795Z,66.60
2018-07-28T22:13:45.143Z,67.10
2018-07-28T22:16:12.432Z,67.80
2018-07-28T22:18:39.767Z,68.30
2018-07-28T22:21:07.209Z,68.70
2018-07-28T22:23:34.521Z,69.10
2018-07-28T22:26:01.831Z,69.30
2018-07-28T22:28:29.324Z,69.50
2018-07-28T22:30:56.646Z,69.70
2018-07-28T22:33:23.994Z,70.00
2018-07-28T22:35:51.381Z,69.50
2018-07-28T22:38:18.741Z,69.30
2018-07-28T22:40:46.095Z,69.30
2018-07-28T22:43:13.415Z,69.30
2018-07-28T22:45:40.767Z,69.40
2018-07-28T22:48:08.104Z,68.80
2018-07-28T22:50:35.471Z,69.00
2018-07-28T22:53:02.776Z,70.20
2018-07-28T22:55:30.091Z,69.90
2018-07-28T22:57:57.404Z,70.30
2018-07-28T23:00:24.783Z,70.20
2018-07-28T23:02:52.224Z,69.90
2018-07-28T23:05:19.576Z,70.30
2018-07-28T23:07:47.638Z,71.10
2018-07-28T23:10:14.975Z,70.60
2018-07-28T23:12:42.293Z,70.50
2018-07-28T23:15:09.616Z,70.50
2018-07-28T23:17:36.933Z,70.60
2018-07-28T23:20:04.381Z,70.20
2018-07-28T23:22:31.725Z,69.60
2018-07-28T23:24:59.083Z,69.90
2018-07-28T23:27:26.403Z,70.30
2018-07-28T23:29:53.756Z,70.60
2018-07-28T23:32:21.099Z,70.30
2018-07-28T23:34:48.424Z,70.70
2018-07-28T23:37:15.746Z,70.00
2018-07-28T23:39:43.134Z,70.00
2018-07-28T23:42:10.479Z,69.30
2018-07-28T23:44:37.799Z,69.40
2018-07-28T23:47:05.195Z,70.30
2018-07-28T23:49:32.528Z,70.80
2018-07-28T23:51:59.876Z,71.30
2018-07-28T23:54:27.209Z,71.10
2018-07-28T23:56:54.546Z,70.70
2018-07-28T23:59:21.859Z,70.50
